sensor_id;sensor_type;location;lat;lon;timestamp;P1;durP1;ratioP1;P2;durP2;ratioP2
40787;SDS011;26497;52.494;7.546;2023-04-07T00:01:43;31.27;;;19.63;;
40787;SDS011;26497;52.494;7.546;2023-04-07T00:04:10;39.15;;;21.42;;
40787;SDS011;26497;52.494;7.546;2023-04-07T00:06:38;33.83;;;21.77;;
40787;SDS011;26497;52.494;7.546;2023-04-07T00:09:07;32.03;;;19.15;;
40787;SDS011;26497;52.494;7.546;2023-04-07T00:11:35;35.05;;;19.52;;
40787;SDS011;26497;52.494;7.546;2023-04-07T00:14:02;36.85;;;19.30;;
40787;SDS011;26497;52.494;7.546;2023-04-07T00:16:29;37.13;;;20.45;;
40787;SDS011;26497;52.494;7.546;2023-04-07T00:18:56;35.90;;;21.10;;
40787;SDS011;26497;52.494;7.546;2023-04-07T00:21:23;33.10;;;20.00;;
40787;SDS011;26497;52.494;7.546;2023-04-07T00:23:52;37.90;;;21.08;;
40787;SDS011;26497;52.494;7.546;2023-04-07T00:26:19;33.65;;;21.13;;
40787;SDS011;26497;52.494;7.546;2023-04-07T00:28:46;34.42;;;20.30;;
40787;SDS011;26497;52.494;7.546;2023-04-07T00:31:13;40.78;;;21.27;;
40787;SDS011;26497;52.494;7.546;2023-04-07T00:33:40;41.22;;;22.90;;
40787;SDS011;26497;52.494;7.546;2023-04-07T00:36:07;34.22;;;20.27;;
40787;SDS011;26497;52.494;7.546;2023-04-07T00:38:34;33.45;;;20.27;;
40787;SDS011;26497;52.494;7.546;2023-04-07T00:41:03;34.10;;;20.48;;
40787;SDS011;26497;52.494;7.546;2023-04-07T00:43:30;35.67;;;20.17;;
40787;SDS011;26497;52.494;7.546;2023-04-07T00:45:57;42.33;;;21.17;;
40787;SDS011;26497;52.494;7.546;2023-04-07T00:48:24;33.38;;;21.60;;
40787;SDS011;26497;52.494;7.546;2023-04-07T00:50:51;38.75;;;21.38;;
40787;SDS011;26497;52.494;7.546;2023-04-07T00:53:19;36.70;;;21.73;;
40787;SDS011;26497;52.494;7.546;2023-04-07T00:55:46;39.13;;;20.83;;
40787;SDS011;26497;52.494;7.546;2023-04-07T00:58:15;41.22;;;22.80;;
40787;SDS011;26497;52.494;7.546;2023-04-07T01:00:43;38.78;;;22.95;;
40787;SDS011;26497;52.494;7.546;2023-04-07T01:03:17;35.67;;;21.02;;
40787;SDS011;26497;52.494;7.546;2023-04-07T01:05:49;40.85;;;22.80;;
40787;SDS011;26497;52.494;7.546;2023-04-07T01:08:24;41.33;;;22.58;;
40787;SDS011;26497;52.494;7.546;2023-04-07T01:11:00;36.63;;;22.05;;
40787;SDS011;26497;52.494;7.546;2023-04-07T01:13:42;33.30;;;20.77;;
40787;SDS011;26497;52.494;7.546;2023-04-07T01:16:18;39.97;;;20.83;;
40787;SDS011;26497;52.494;7.546;2023-04-07T01:18:53;41.00;;;22.23;;
40787;SDS011;26497;52.494;7.546;2023-04-07T01:21:24;37.70;;;20.13;;
40787;SDS011;26497;52.494;7.546;2023-04-07T01:24:02;39.80;;;23.07;;
40787;SDS011;26497;52.494;7.546;2023-04-07T01:26:50;41.88;;;23.30;;
40787;SDS011;26497;52.494;7.546;2023-04-07T01:29:23;36.80;;;21.60;;
40787;SDS011;26497;52.494;7.546;2023-04-07T01:32:04;36.05;;;21.67;;
40787;SDS011;26497;52.494;7.546;2023-04-07T01:34:35;43.03;;;23.23;;
40787;SDS011;26497;52.494;7.546;2023-04-07T01:37:03;35.58;;;21.55;;
40787;SDS011;26497;52.494;7.546;2023-04-07T01:39:31;35.15;;;21.98;;
40787;SDS011;26497;52.494;7.546;2023-04-07T01:42:00;35.92;;;20.55;;
40787;SDS011;26497;52.494;7.546;2023-04-07T01:44:32;39.38;;;21.98;;
40787;SDS011;26497;52.494;7.546;2023-04-07T01:47:00;35.05;;;20.60;;
40787;SDS011;26497;52.494;7.546;2023-04-07T01:49:29;35.78;;;22.23;;
40787;SDS011;26497;52.494;7.546;2023-04-07T01:51:57;41.83;;;22.45;;
40787;SDS011;26497;52.494;7.546;2023-04-07T01:54:25;38.17;;;20.08;;
40787;SDS011;26497;52.494;7.546;2023-04-07T01:56:53;33.28;;;19.73;;
40787;SDS011;26497;52.494;7.546;2023-04-07T01:59:20;39.95;;;20.42;;
40787;SDS011;26497;52.494;7.546;2023-04-07T02:01:49;46.55;;;21.73;;
40787;SDS011;26497;52.494;7.546;2023-04-07T02:04:18;32.72;;;19.85;;
40787;SDS011;26497;52.494;7.546;2023-04-07T02:06:51;34.45;;;20.00;;
40787;SDS011;26497;52.494;7.546;2023-04-07T02:09:34;45.38;;;21.52;;
40787;SDS011;26497;52.494;7.546;2023-04-07T02:12:04;35.38;;;21.65;;
40787;SDS011;26497;52.494;7.546;2023-04-07T02:14:36;33.20;;;19.70;;
40787;SDS011;26497;52.494;7.546;2023-04-07T02:17:05;36.08;;;20.13;;
40787;SDS011;26497;52.494;7.546;2023-04-07T02:19:34;41.97;;;22.15;;
40787;SDS011;26497;52.494;7.546;2023-04-07T02:22:02;35.13;;;20.10;;
40787;SDS011;26497;52.494;7.546;2023-04-07T02:24:31;42.70;;;21.55;;
40787;SDS011;26497;52.494;7.546;2023-04-07T02:26:58;38.40;;;20.38;;
40787;SDS011;26497;52.494;7.546;2023-04-07T02:29:26;38.13;;;20.67;;
40787;SDS011;26497;52.494;7.546;2023-04-07T02:31:53;39.95;;;22.10;;
40787;SDS011;26497;52.494;7.546;2023-04-07T02:34:22;36.47;;;22.10;;
40787;SDS011;26497;52.494;7.546;2023-04-07T02:36:50;37.38;;;20.83;;
40787;SDS011;26497;52.494;7.546;2023-04-07T02:39:17;45.38;;;22.98;;
40787;SDS011;26497;52.494;7.546;2023-04-07T02:41:44;43.88;;;22.42;;
40787;SDS011;26497;52.494;7.546;2023-04-07T02:44:11;40.70;;;23.23;;
40787;SDS011;26497;52.494;7.546;2023-04-07T02:46:38;49.53;;;23.30;;
40787;SDS011;26497;52.494;7.546;2023-04-07T02:49:06;42.95;;;21.40;;
40787;SDS011;26497;52.494;7.546;2023-04-07T02:51:34;42.03;;;23.05;;
40787;SDS011;26497;52.494;7.546;2023-04-07T02:54:01;45.15;;;22.80;;
40787;SDS011;26497;52.494;7.546;2023-04-07T02:56:28;51.35;;;25.35;;
40787;SDS011;26497;52.494;7.546;2023-04-07T02:58:55;363.00;;;173.05;;
40787;SDS011;26497;52.494;7.546;2023-04-07T03:01:22;44.03;;;23.20;;
40787;SDS011;26497;52.494;7.546;2023-04-07T03:03:49;69.80;;;52.47;;
40787;SDS011;26497;52.494;7.546;2023-04-07T03:06:16;45.67;;;24.17;;
40787;SDS011;26497;52.494;7.546;2023-04-07T03:08:45;337.35;;;303.00;;
40787;SDS011;26497;52.494;7.546;2023-04-07T03:11:12;196.25;;;123.93;;
40787;SDS011;26497;52.494;7.546;2023-04-07T03:13:39;1999.90;;;999.90;;
40787;SDS011;26497;52.494;7.546;2023-04-07T03:16:06;1999.90;;;999.90;;
40787;SDS011;26497;52.494;7.546;2023-04-07T03:18:33;1999.90;;;999.90;;
40787;SDS011;26497;52.494;7.546;2023-04-07T03:21:00;1999.90;;;999.90;;
40787;SDS011;26497;52.494;7.546;2023-04-07T03:23:27;1999.90;;;999.90;;
40787;SDS011;26497;52.494;7.546;2023-04-07T03:25:56;1999.90;;;999.90;;
40787;SDS011;26497;52.494;7.546;2023-04-07T03:28:23;1999.90;;;999.90;;
40787;SDS011;26497;52.494;7.546;2023-04-07T03:30:50;1999.90;;;999.90;;
40787;SDS011;26497;52.494;7.546;2023-04-07T03:33:17;1999.90;;;999.90;;
40787;SDS011;26497;52.494;7.546;2023-04-07T03:35:45;1999.90;;;999.90;;
40787;SDS011;26497;52.494;7.546;2023-04-07T03:38:12;1999.90;;;999.90;;
40787;SDS011;26497;52.494;7.546;2023-04-07T03:40:39;1999.90;;;999.90;;
40787;SDS011;26497;52.494;7.546;2023-04-07T03:43:07;1999.90;;;999.90;;
40787;SDS011;26497;52.494;7.546;2023-04-07T03:45:38;1999.90;;;999.90;;
40787;SDS011;26497;52.494;7.546;2023-04-07T03:48:05;1999.90;;;999.90;;
40787;SDS011;26497;52.494;7.546;2023-04-07T03:50:34;1999.90;;;999.90;;
40787;SDS011;26497;52.494;7.546;2023-04-07T03:53:01;1999.90;;;999.90;;
40787;SDS011;26497;52.494;7.546;2023-04-07T03:55:28;1999.90;;;999.90;;
40787;SDS011;26497;52.494;7.546;2023-04-07T03:57:56;1999.90;;;999.90;;
40787;SDS011;26497;52.494;7.546;2023-04-07T04:00:24;1999.90;;;999.90;;
40787;SDS011;26497;52.494;7.546;2023-04-07T04:02:52;1999.90;;;999.90;;
40787;SDS011;26497;52.494;7.546;2023-04-07T04:05:19;1999.90;;;999.90;;
40787;SDS011;26497;52.494;7.546;2023-04-07T04:07:46;1999.90;;;999.90;;
40787;SDS011;26497;52.494;7.546;2023-04-07T04:10:15;1999.90;;;999.90;;
40787;SDS011;26497;52.494;7.546;2023-04-07T04:12:42;1999.90;;;999.90;;
40787;SDS011;26497;52.494;7.546;2023-04-07T04:15:09;1999.90;;;999.90;;
40787;SDS011;26497;52.494;7.546;2023-04-07T04:17:38;1999.90;;;999.90;;
40787;SDS011;26497;52.494;7.546;2023-04-07T04:20:05;1999.90;;;999.90;;
40787;SDS011;26497;52.494;7.546;2023-04-07T04:22:34;1999.90;;;999.90;;
40787;SDS011;26497;52.494;7.546;2023-04-07T04:25:01;1999.90;;;999.90;;
40787;SDS011;26497;52.494;7.546;2023-04-07T04:27:29;1999.90;;;999.90;;
40787;SDS011;26497;52.494;7.546;2023-04-07T04:29:56;1999.90;;;999.90;;
40787;SDS011;26497;52.494;7.546;2023-04-07T04:32:23;1999.90;;;999.90;;
40787;SDS011;26497;52.494;7.546;2023-04-07T04:34:52;1999.90;;;999.90;;
40787;SDS011;26497;52.494;7.546;2023-04-07T04:37:19;1999.90;;;999.90;;
40787;SDS011;26497;52.494;7.546;2023-04-07T04:39:46;1999.90;;;999.90;;
40787;SDS011;26497;52.494;7.546;2023-04-07T04:42:13;1999.90;;;999.90;;
40787;SDS011;26497;52.494;7.546;2023-04-07T04:44:41;1999.90;;;999.90;;
40787;SDS011;26497;52.494;7.546;2023-04-07T04:47:08;1999.90;;;999.90;;
40787;SDS011;26497;52.494;7.546;2023-04-07T04:49:35;1999.90;;;999.90;;
40787;SDS011;26497;52.494;7.546;2023-04-07T04:52:03;1999.90;;;999.90;;
40787;SDS011;26497;52.494;7.546;2023-04-07T04:54:31;1999.90;;;999.90;;
40787;SDS011;26497;52.494;7.546;2023-04-07T04:56:58;1999.90;;;999.90;;
40787;SDS011;26497;52.494;7.546;2023-04-07T04:59:25;1999.90;;;999.90;;
40787;SDS011;26497;52.494;7.546;2023-04-07T05:01:52;1999.90;;;999.90;;
40787;SDS011;26497;52.494;7.546;2023-04-07T05:04:19;1999.90;;;999.90;;
40787;SDS011;26497;52.494;7.546;2023-04-07T05:06:46;1999.90;;;999.90;;
40787;SDS011;26497;52.494;7.546;2023-04-07T05:09:15;1999.90;;;999.90;;
40787;SDS011;26497;52.494;7.546;2023-04-07T05:11:42;1999.90;;;999.90;;
40787;SDS011;26497;52.494;7.546;2023-04-07T05:14:09;1999.90;;;999.90;;
40787;SDS011;26497;52.494;7.546;2023-04-07T05:16:36;1999.90;;;999.90;;
40787;SDS011;26497;52.494;7.546;2023-04-07T05:19:03;1999.90;;;999.90;;
40787;SDS011;26497;52.494;7.546;2023-04-07T05:21:30;1999.90;;;999.90;;
40787;SDS011;26497;52.494;7.546;2023-04-07T05:23:57;1999.90;;;999.90;;
40787;SDS011;26497;52.494;7.546;2023-04-07T05:26:26;1999.90;;;999.90;;
40787;SDS011;26497;52.494;7.546;2023-04-07T05:28:53;1999.90;;;999.90;;
40787;SDS011;26497;52.494;7.546;2023-04-07T05:31:20;1999.90;;;999.90;;
40787;SDS011;26497;52.494;7.546;2023-04-07T05:33:47;1999.90;;;999.90;;
40787;SDS011;26497;52.494;7.546;2023-04-07T05:36:14;1999.90;;;999.90;;
40787;SDS011;26497;52.494;7.546;2023-04-07T05:38:41;1999.90;;;999.90;;
40787;SDS011;26497;52.494;7.546;2023-04-07T05:41:08;1999.90;;;999.90;;
40787;SDS011;26497;52.494;7.546;2023-04-07T05:43:37;1999.90;;;999.90;;
40787;SDS011;26497;52.494;7.546;2023-04-07T05:46:04;1999.90;;;999.90;;
40787;SDS011;26497;52.494;7.546;2023-04-07T05:48:31;1999.90;;;999.90;;
40787;SDS011;26497;52.494;7.546;2023-04-07T05:50:58;1999.90;;;999.90;;
40787;SDS011;26497;52.494;7.546;2023-04-07T05:53:25;1999.90;;;999.90;;
40787;SDS011;26497;52.494;7.546;2023-04-07T05:55:52;1999.90;;;999.90;;
40787;SDS011;26497;52.494;7.546;2023-04-07T05:58:19;1999.90;;;999.90;;
40787;SDS011;26497;52.494;7.546;2023-04-07T06:00:47;1999.90;;;999.90;;
40787;SDS011;26497;52.494;7.546;2023-04-07T06:03:15;1999.90;;;999.90;;
40787;SDS011;26497;52.494;7.546;2023-04-07T06:05:44;1999.90;;;999.90;;
40787;SDS011;26497;52.494;7.546;2023-04-07T06:08:11;1999.90;;;999.90;;
40787;SDS011;26497;52.494;7.546;2023-04-07T06:10:38;1999.90;;;999.90;;
40787;SDS011;26497;52.494;7.546;2023-04-07T06:13:06;1999.90;;;999.90;;
40787;SDS011;26497;52.494;7.546;2023-04-07T06:15:33;756.97;;;698.15;;
40787;SDS011;26497;52.494;7.546;2023-04-07T06:18:01;1999.90;;;999.90;;
40787;SDS011;26497;52.494;7.546;2023-04-07T06:20:28;1999.90;;;999.90;;
40787;SDS011;26497;52.494;7.546;2023-04-07T06:22:55;1999.90;;;999.90;;
40787;SDS011;26497;52.494;7.546;2023-04-07T06:25:22;1999.90;;;999.90;;
40787;SDS011;26497;52.494;7.546;2023-04-07T06:27:50;1999.90;;;999.90;;
40787;SDS011;26497;52.494;7.546;2023-04-07T06:30:17;1999.90;;;999.90;;
40787;SDS011;26497;52.494;7.546;2023-04-07T06:32:44;1999.90;;;999.90;;
40787;SDS011;26497;52.494;7.546;2023-04-07T06:35:12;1999.90;;;999.90;;
40787;SDS011;26497;52.494;7.546;2023-04-07T06:37:40;1999.90;;;999.90;;
40787;SDS011;26497;52.494;7.546;2023-04-07T06:40:07;1999.90;;;999.90;;
40787;SDS011;26497;52.494;7.546;2023-04-07T06:42:35;1999.90;;;999.90;;
40787;SDS011;26497;52.494;7.546;2023-04-07T06:45:02;1999.90;;;999.90;;
40787;SDS011;26497;52.494;7.546;2023-04-07T06:47:29;1999.90;;;999.90;;
40787;SDS011;26497;52.494;7.546;2023-04-07T06:49:57;1999.90;;;999.90;;
40787;SDS011;26497;52.494;7.546;2023-04-07T06:52:25;1999.90;;;999.90;;
40787;SDS011;26497;52.494;7.546;2023-04-07T06:54:52;1999.90;;;999.90;;
40787;SDS011;26497;52.494;7.546;2023-04-07T06:57:19;1999.90;;;999.90;;
40787;SDS011;26497;52.494;7.546;2023-04-07T06:59:46;1999.90;;;999.90;;
40787;SDS011;26497;52.494;7.546;2023-04-07T07:02:13;1999.90;;;999.90;;
40787;SDS011;26497;52.494;7.546;2023-04-07T07:04:40;1999.90;;;999.90;;
40787;SDS011;26497;52.494;7.546;2023-04-07T07:07:07;1999.90;;;999.90;;
40787;SDS011;26497;52.494;7.546;2023-04-07T07:09:36;1999.90;;;999.90;;
40787;SDS011;26497;52.494;7.546;2023-04-07T07:12:03;1999.90;;;999.90;;
40787;SDS011;26497;52.494;7.546;2023-04-07T07:14:30;1999.90;;;999.90;;
40787;SDS011;26497;52.494;7.546;2023-04-07T07:16:57;1999.90;;;999.90;;
40787;SDS011;26497;52.494;7.546;2023-04-07T07:19:24;1999.90;;;999.90;;
40787;SDS011;26497;52.494;7.546;2023-04-07T07:21:51;1999.90;;;999.90;;
40787;SDS011;26497;52.494;7.546;2023-04-07T07:24:19;1999.90;;;999.90;;
40787;SDS011;26497;52.494;7.546;2023-04-07T07:26:47;1999.90;;;999.90;;
40787;SDS011;26497;52.494;7.546;2023-04-07T07:29:15;1999.90;;;999.90;;
40787;SDS011;26497;52.494;7.546;2023-04-07T07:31:42;1999.90;;;999.90;;
40787;SDS011;26497;52.494;7.546;2023-04-07T07:34:09;1999.90;;;999.90;;
40787;SDS011;26497;52.494;7.546;2023-04-07T07:36:36;1999.90;;;999.90;;
40787;SDS011;26497;52.494;7.546;2023-04-07T07:39:03;1999.90;;;999.90;;
40787;SDS011;26497;52.494;7.546;2023-04-07T07:41:31;1999.90;;;999.90;;
40787;SDS011;26497;52.494;7.546;2023-04-07T07:43:59;1999.90;;;999.90;;
40787;SDS011;26497;52.494;7.546;2023-04-07T07:46:26;1999.90;;;999.90;;
40787;SDS011;26497;52.494;7.546;2023-04-07T07:48:53;1999.90;;;999.90;;
40787;SDS011;26497;52.494;7.546;2023-04-07T07:51:20;1999.90;;;999.90;;
40787;SDS011;26497;52.494;7.546;2023-04-07T07:53:47;1999.90;;;999.90;;
40787;SDS011;26497;52.494;7.546;2023-04-07T07:56:14;1999.90;;;999.90;;
40787;SDS011;26497;52.494;7.546;2023-04-07T07:58:42;1999.90;;;999.90;;
40787;SDS011;26497;52.494;7.546;2023-04-07T08:01:10;1999.90;;;999.90;;
40787;SDS011;26497;52.494;7.546;2023-04-07T08:03:37;1999.90;;;999.90;;
40787;SDS011;26497;52.494;7.546;2023-04-07T08:06:04;1999.90;;;999.90;;
40787;SDS011;26497;52.494;7.546;2023-04-07T08:08:33;1999.90;;;999.90;;
40787;SDS011;26497;52.494;7.546;2023-04-07T08:11:00;1999.90;;;999.90;;
40787;SDS011;26497;52.494;7.546;2023-04-07T08:13:27;1999.90;;;999.90;;
40787;SDS011;26497;52.494;7.546;2023-04-07T08:15:54;1999.90;;;999.90;;
40787;SDS011;26497;52.494;7.546;2023-04-07T08:18:22;1999.90;;;999.90;;
40787;SDS011;26497;52.494;7.546;2023-04-07T08:20:49;1999.90;;;999.90;;
40787;SDS011;26497;52.494;7.546;2023-04-07T08:23:17;1999.90;;;999.90;;
40787;SDS011;26497;52.494;7.546;2023-04-07T08:25:44;1999.90;;;999.90;;
40787;SDS011;26497;52.494;7.546;2023-04-07T08:28:11;1999.90;;;999.90;;
40787;SDS011;26497;52.494;7.546;2023-04-07T08:30:38;1999.90;;;999.90;;
40787;SDS011;26497;52.494;7.546;2023-04-07T08:33:05;1999.90;;;999.90;;
40787;SDS011;26497;52.494;7.546;2023-04-07T08:35:34;1999.90;;;999.90;;
40787;SDS011;26497;52.494;7.546;2023-04-07T08:38:01;1999.90;;;999.90;;
40787;SDS011;26497;52.494;7.546;2023-04-07T08:40:28;1999.90;;;999.90;;
40787;SDS011;26497;52.494;7.546;2023-04-07T08:42:57;1999.90;;;999.90;;
40787;SDS011;26497;52.494;7.546;2023-04-07T08:45:30;1999.90;;;999.90;;
40787;SDS011;26497;52.494;7.546;2023-04-07T08:47:58;1999.90;;;999.90;;
40787;SDS011;26497;52.494;7.546;2023-04-07T08:50:29;1999.90;;;999.90;;
40787;SDS011;26497;52.494;7.546;2023-04-07T08:52:59;1999.90;;;999.90;;
40787;SDS011;26497;52.494;7.546;2023-04-07T08:55:31;1999.90;;;999.90;;
40787;SDS011;26497;52.494;7.546;2023-04-07T08:58:00;1999.90;;;999.90;;
40787;SDS011;26497;52.494;7.546;2023-04-07T09:00:28;1999.90;;;999.90;;
40787;SDS011;26497;52.494;7.546;2023-04-07T09:02:55;1999.90;;;999.90;;
40787;SDS011;26497;52.494;7.546;2023-04-07T09:05:23;1999.90;;;999.90;;
40787;SDS011;26497;52.494;7.546;2023-04-07T09:07:50;1999.90;;;999.90;;
40787;SDS011;26497;52.494;7.546;2023-04-07T09:10:19;1999.90;;;999.90;;
40787;SDS011;26497;52.494;7.546;2023-04-07T09:12:46;1999.90;;;999.90;;
40787;SDS011;26497;52.494;7.546;2023-04-07T09:15:13;1999.90;;;999.90;;
40787;SDS011;26497;52.494;7.546;2023-04-07T09:17:40;1999.90;;;999.90;;
40787;SDS011;26497;52.494;7.546;2023-04-07T09:20:07;1999.90;;;999.90;;
40787;SDS011;26497;52.494;7.546;2023-04-07T09:22:35;1999.90;;;999.90;;
40787;SDS011;26497;52.494;7.546;2023-04-07T09:25:11;1999.90;;;999.90;;
40787;SDS011;26497;52.494;7.546;2023-04-07T09:27:42;274.65;;;259.65;;
40787;SDS011;26497;52.494;7.546;2023-04-07T09:30:21;319.40;;;302.08;;
40787;SDS011;26497;52.494;7.546;2023-04-07T09:32:48;271.35;;;256.58;;
40787;SDS011;26497;52.494;7.546;2023-04-07T09:35:15;262.70;;;248.02;;
40787;SDS011;26497;52.494;7.546;2023-04-07T09:37:42;226.70;;;213.93;;
40787;SDS011;26497;52.494;7.546;2023-04-07T09:40:09;184.55;;;173.50;;
40787;SDS011;26497;52.494;7.546;2023-04-07T09:42:44;174.90;;;163.93;;
40787;SDS011;26497;52.494;7.546;2023-04-07T09:45:12;1999.90;;;999.90;;
40787;SDS011;26497;52.494;7.546;2023-04-07T09:47:51;59.25;;;54.97;;
40787;SDS011;26497;52.494;7.546;2023-04-07T09:50:31;76.70;;;70.82;;
40787;SDS011;26497;52.494;7.546;2023-04-07T09:53:00;42.60;;;39.20;;
40787;SDS011;26497;52.494;7.546;2023-04-07T09:55:28;41.40;;;38.35;;
40787;SDS011;26497;52.494;7.546;2023-04-07T09:57:59;30.10;;;27.77;;
40787;SDS011;26497;52.494;7.546;2023-04-07T10:00:26;27.30;;;25.30;;
40787;SDS011;26497;52.494;7.546;2023-04-07T10:02:53;27.95;;;25.95;;
40787;SDS011;26497;52.494;7.546;2023-04-07T10:05:21;29.17;;;26.70;;
40787;SDS011;26497;52.494;7.546;2023-04-07T10:07:50;30.02;;;27.88;;
40787;SDS011;26497;52.494;7.546;2023-04-07T10:10:17;30.17;;;27.83;;
40787;SDS011;26497;52.494;7.546;2023-04-07T10:12:44;28.92;;;26.77;;
40787;SDS011;26497;52.494;7.546;2023-04-07T10:15:13;28.77;;;26.70;;
40787;SDS011;26497;52.494;7.546;2023-04-07T10:17:43;28.08;;;25.88;;
40787;SDS011;26497;52.494;7.546;2023-04-07T10:20:13;26.33;;;24.27;;
40787;SDS011;26497;52.494;7.546;2023-04-07T10:22:42;26.23;;;24.05;;
40787;SDS011;26497;52.494;7.546;2023-04-07T10:25:11;26.65;;;24.55;;
40787;SDS011;26497;52.494;7.546;2023-04-07T10:30:17;25.13;;;23.23;;
40787;SDS011;26497;52.494;7.546;2023-04-07T10:32:49;26.48;;;24.17;;
40787;SDS011;26497;52.494;7.546;2023-04-07T10:35:18;24.13;;;22.33;;
40787;SDS011;26497;52.494;7.546;2023-04-07T10:40:37;24.33;;;22.40;;
40787;SDS011;26497;52.494;7.546;2023-04-07T10:43:06;24.85;;;22.92;;
40787;SDS011;26497;52.494;7.546;2023-04-07T10:48:23;25.23;;;23.15;;
40787;SDS011;26497;52.494;7.546;2023-04-07T10:59:41;25.98;;;24.05;;
40787;SDS011;26497;52.494;7.546;2023-04-07T11:02:43;24.00;;;22.20;;
40787;SDS011;26497;52.494;7.546;2023-04-07T11:05:20;24.90;;;23.05;;
40787;SDS011;26497;52.494;7.546;2023-04-07T11:07:49;23.08;;;21.67;;
40787;SDS011;26497;52.494;7.546;2023-04-07T11:10:23;23.50;;;22.10;;
40787;SDS011;26497;52.494;7.546;2023-04-07T11:12:57;24.90;;;23.17;;
40787;SDS011;26497;52.494;7.546;2023-04-07T11:15:29;25.48;;;23.88;;
40787;SDS011;26497;52.494;7.546;2023-04-07T11:18:15;25.08;;;23.58;;
40787;SDS011;26497;52.494;7.546;2023-04-07T11:20:45;22.55;;;21.23;;
40787;SDS011;26497;52.494;7.546;2023-04-07T11:23:17;25.48;;;23.77;;
40787;SDS011;26497;52.494;7.546;2023-04-07T11:25:48;25.25;;;23.70;;
40787;SDS011;26497;52.494;7.546;2023-04-07T11:28:17;23.40;;;21.90;;
40787;SDS011;26497;52.494;7.546;2023-04-07T11:30:45;22.00;;;20.60;;
40787;SDS011;26497;52.494;7.546;2023-04-07T11:33:17;22.83;;;21.27;;
40787;SDS011;26497;52.494;7.546;2023-04-07T11:35:50;22.45;;;20.95;;
40787;SDS011;26497;52.494;7.546;2023-04-07T11:38:20;23.13;;;21.73;;
40787;SDS011;26497;52.494;7.546;2023-04-07T11:40:49;25.88;;;24.08;;
40787;SDS011;26497;52.494;7.546;2023-04-07T11:43:17;24.88;;;23.38;;
40787;SDS011;26497;52.494;7.546;2023-04-07T11:48:32;23.20;;;21.90;;
40787;SDS011;26497;52.494;7.546;2023-04-07T11:51:00;22.40;;;20.95;;
40787;SDS011;26497;52.494;7.546;2023-04-07T11:53:29;24.25;;;22.95;;
40787;SDS011;26497;52.494;7.546;2023-04-07T11:56:02;23.05;;;21.75;;
40787;SDS011;26497;52.494;7.546;2023-04-07T11:58:33;22.83;;;21.30;;
40787;SDS011;26497;52.494;7.546;2023-04-07T12:01:02;23.70;;;21.95;;
40787;SDS011;26497;52.494;7.546;2023-04-07T12:06:03;23.60;;;21.85;;
40787;SDS011;26497;52.494;7.546;2023-04-07T12:08:38;25.70;;;24.20;;
40787;SDS011;26497;52.494;7.546;2023-04-07T12:11:07;25.85;;;24.10;;
40787;SDS011;26497;52.494;7.546;2023-04-07T12:13:35;25.35;;;23.75;;
40787;SDS011;26497;52.494;7.546;2023-04-07T12:16:02;24.88;;;23.27;;
40787;SDS011;26497;52.494;7.546;2023-04-07T12:18:30;25.58;;;23.95;;
40787;SDS011;26497;52.494;7.546;2023-04-07T12:20:58;25.73;;;24.17;;
40787;SDS011;26497;52.494;7.546;2023-04-07T12:23:25;24.63;;;23.30;;
40787;SDS011;26497;52.494;7.546;2023-04-07T12:25:53;25.52;;;23.98;;
40787;SDS011;26497;52.494;7.546;2023-04-07T12:28:20;23.90;;;22.40;;
40787;SDS011;26497;52.494;7.546;2023-04-07T12:30:47;23.25;;;21.85;;
40787;SDS011;26497;52.494;7.546;2023-04-07T12:33:14;22.73;;;21.52;;
40787;SDS011;26497;52.494;7.546;2023-04-07T12:35:41;22.73;;;21.42;;
40787;SDS011;26497;52.494;7.546;2023-04-07T12:38:09;22.73;;;21.27;;
40787;SDS011;26497;52.494;7.546;2023-04-07T12:40:36;23.38;;;21.92;;
40787;SDS011;26497;52.494;7.546;2023-04-07T12:43:03;23.75;;;22.35;;
40787;SDS011;26497;52.494;7.546;2023-04-07T12:45:31;36.03;;;33.72;;
40787;SDS011;26497;52.494;7.546;2023-04-07T12:47:58;25.98;;;24.23;;
40787;SDS011;26497;52.494;7.546;2023-04-07T12:50:25;25.83;;;24.33;;
40787;SDS011;26497;52.494;7.546;2023-04-07T12:52:53;24.80;;;23.40;;
40787;SDS011;26497;52.494;7.546;2023-04-07T12:55:22;24.45;;;22.95;;
40787;SDS011;26497;52.494;7.546;2023-04-07T12:57:49;26.17;;;24.30;;
40787;SDS011;26497;52.494;7.546;2023-04-07T13:00:16;25.20;;;23.63;;
40787;SDS011;26497;52.494;7.546;2023-04-07T13:02:43;23.83;;;22.42;;
40787;SDS011;26497;52.494;7.546;2023-04-07T13:05:10;23.92;;;22.38;;
40787;SDS011;26497;52.494;7.546;2023-04-07T13:07:37;24.35;;;22.75;;
40787;SDS011;26497;52.494;7.546;2023-04-07T13:10:04;24.20;;;22.80;;
40787;SDS011;26497;52.494;7.546;2023-04-07T13:12:34;23.17;;;21.73;;
40787;SDS011;26497;52.494;7.546;2023-04-07T13:15:04;24.40;;;22.65;;
40787;SDS011;26497;52.494;7.546;2023-04-07T13:17:32;23.40;;;21.80;;
40787;SDS011;26497;52.494;7.546;2023-04-07T13:20:00;22.23;;;20.85;;
40787;SDS011;26497;52.494;7.546;2023-04-07T13:22:28;23.13;;;21.60;;
40787;SDS011;26497;52.494;7.546;2023-04-07T13:24:55;24.05;;;22.35;;
40787;SDS011;26497;52.494;7.546;2023-04-07T13:27:22;24.20;;;22.52;;
40787;SDS011;26497;52.494;7.546;2023-04-07T13:29:50;26.45;;;24.25;;
40787;SDS011;26497;52.494;7.546;2023-04-07T13:32:17;24.13;;;22.33;;
40787;SDS011;26497;52.494;7.546;2023-04-07T13:34:44;24.80;;;22.98;;
40787;SDS011;26497;52.494;7.546;2023-04-07T13:37:11;24.80;;;23.10;;
40787;SDS011;26497;52.494;7.546;2023-04-07T13:39:38;35.22;;;31.42;;
40787;SDS011;26497;52.494;7.546;2023-04-07T13:42:05;29.27;;;26.55;;
40787;SDS011;26497;52.494;7.546;2023-04-07T13:44:33;23.75;;;22.25;;
40787;SDS011;26497;52.494;7.546;2023-04-07T13:47:02;23.48;;;22.00;;
40787;SDS011;26497;52.494;7.546;2023-04-07T13:49:29;23.65;;;22.15;;
40787;SDS011;26497;52.494;7.546;2023-04-07T13:51:56;23.63;;;22.13;;
40787;SDS011;26497;52.494;7.546;2023-04-07T13:54:24;23.45;;;21.83;;
40787;SDS011;26497;52.494;7.546;2023-04-07T13:56:51;25.92;;;24.10;;
40787;SDS011;26497;52.494;7.546;2023-04-07T13:59:18;24.15;;;22.33;;
40787;SDS011;26497;52.494;7.546;2023-04-07T14:01:45;24.38;;;22.67;;
40787;SDS011;26497;52.494;7.546;2023-04-07T14:04:13;26.30;;;24.50;;
40787;SDS011;26497;52.494;7.546;2023-04-07T14:06:41;25.48;;;23.77;;
40787;SDS011;26497;52.494;7.546;2023-04-07T14:09:08;26.13;;;24.42;;
40787;SDS011;26497;52.494;7.546;2023-04-07T14:11:35;26.88;;;24.92;;
40787;SDS011;26497;52.494;7.546;2023-04-07T14:14:02;25.17;;;23.38;;
40787;SDS011;26497;52.494;7.546;2023-04-07T14:16:30;26.30;;;24.48;;
40787;SDS011;26497;52.494;7.546;2023-04-07T14:18:57;26.35;;;24.70;;
40787;SDS011;26497;52.494;7.546;2023-04-07T14:21:25;26.98;;;25.10;;
40787;SDS011;26497;52.494;7.546;2023-04-07T14:23:53;26.15;;;24.33;;
40787;SDS011;26497;52.494;7.546;2023-04-07T14:26:20;26.13;;;24.30;;
40787;SDS011;26497;52.494;7.546;2023-04-07T14:28:47;27.20;;;25.38;;
40787;SDS011;26497;52.494;7.546;2023-04-07T14:31:14;26.67;;;24.63;;
40787;SDS011;26497;52.494;7.546;2023-04-07T14:33:42;27.88;;;25.83;;